Pagina principale
METAR-TAF:

METAR-TAF

Aeroporti :

Batajnica, Serbia

latitudine: 44-56-07N, longitudine: 020-15-27E, altezza: 86 m

Osservazione

Il bollettino è stato emesso 17 minuti fa, alle 16:00 UTC
Vento 5 kt da nord, variando fra nord-ovest e est/nord-est
Temperature 32°C
Umidità 36%
Pressione 1015 hPa
Visibilità 10 km o più
nessuna nube inferiore a 1500 m e nessun cumulonembo

METAR: LYBT 181600Z 01005KT 310V060 CAVOK 32/15 Q1015 NOSIG

Ora: 18:17 (16:17 UTC)

Previsione

Il bollettino è stato emesso 5 ore e 17 minuti fa, alle 11:00 UTC
Previsione valida dal 18 alle 12 UTC al 19 alle 12 UTC
Vento 5 kt da est
Visibilità 10 km o più
nessuna nube inferiore a 1500 m e nessun cumulonembo
Temporaneamente
dal 19 alle 03 UTC al 19 alle 05 UTC
Visibilità: 4000 m
foschia

TAF: LYBT 181100Z 1812/1912 10005KT CAVOK TX33/1813Z TN17/1903Z TEMPO 1903/1905 4000 BR

Osservazioni e previsioni meteorologiche di più di 4000 aeroporti (messaggi METAR e TAF).

Le stazioni disponibili sono rappresentate dai dischi gialli e rossi sulla carta.

Puntare il mouse per vedere il nome della stazione.

Clicca sopra per visualizzare le osservazioni e previsioni meteorologiche.

Per cambiare la mappa : fare clic sui pulsanti verdi con una croce nera per ingrandire, il pulsante verde con un trattino per diminuire, o sulla freccia verde per le mappe adiacenti.


METAR-TAF: